sensor_id;sensor_type;location;lat;lon;timestamp;temperature;humidity
42489;DHT22;28118;52.388;9.452;2022-12-20T00:01:30;6.40;99.90
42489;DHT22;28118;52.388;9.452;2022-12-20T00:04:00;6.30;99.90
42489;DHT22;28118;52.388;9.452;2022-12-20T00:06:33;6.20;99.90
42489;DHT22;28118;52.388;9.452;2022-12-20T00:09:02;6.20;99.90
42489;DHT22;28118;52.388;9.452;2022-12-20T00:11:29;6.10;99.90
42489;DHT22;28118;52.388;9.452;2022-12-20T00:13:57;6.20;99.90
42489;DHT22;28118;52.388;9.452;2022-12-20T00:16:26;6.10;99.90
42489;DHT22;28118;52.388;9.452;2022-12-20T00:18:55;6.10;99.90
42489;DHT22;28118;52.388;9.452;2022-12-20T00:21:23;6.00;99.90
42489;DHT22;28118;52.388;9.452;2022-12-20T00:23:51;6.00;99.90
42489;DHT22;28118;52.388;9.452;2022-12-20T00:26:20;5.90;99.90
42489;DHT22;28118;52.388;9.452;2022-12-20T00:28:47;5.90;99.90
42489;DHT22;28118;52.388;9.452;2022-12-20T00:31:16;5.80;99.90
42489;DHT22;28118;52.388;9.452;2022-12-20T00:33:49;5.70;99.90
42489;DHT22;28118;52.388;9.452;2022-12-20T00:36:16;5.80;99.90
42489;DHT22;28118;52.388;9.452;2022-12-20T00:38:45;5.90;99.90
42489;DHT22;28118;52.388;9.452;2022-12-20T00:41:14;5.90;99.90
42489;DHT22;28118;52.388;9.452;2022-12-20T00:43:41;6.00;99.90
42489;DHT22;28118;52.388;9.452;2022-12-20T00:46:10;6.00;99.90
42489;DHT22;28118;52.388;9.452;2022-12-20T00:48:37;6.10;99.90
42489;DHT22;28118;52.388;9.452;2022-12-20T00:51:10;6.10;99.90
42489;DHT22;28118;52.388;9.452;2022-12-20T00:53:38;6.10;99.90
42489;DHT22;28118;52.388;9.452;2022-12-20T00:56:06;6.10;99.90
42489;DHT22;28118;52.388;9.452;2022-12-20T00:58:35;6.10;99.90
42489;DHT22;28118;52.388;9.452;2022-12-20T01:01:04;6.10;99.90
42489;DHT22;28118;52.388;9.452;2022-12-20T01:03:32;6.10;99.90
42489;DHT22;28118;52.388;9.452;2022-12-20T01:06:00;6.20;99.90
42489;DHT22;28118;52.388;9.452;2022-12-20T01:08:29;6.30;99.90
42489;DHT22;28118;52.388;9.452;2022-12-20T01:11:03;6.30;99.90
42489;DHT22;28118;52.388;9.452;2022-12-20T01:13:33;6.10;99.90
42489;DHT22;28118;52.388;9.452;2022-12-20T01:16:07;6.10;99.90
42489;DHT22;28118;52.388;9.452;2022-12-20T01:18:34;6.20;99.90
42489;DHT22;28118;52.388;9.452;2022-12-20T01:21:10;6.20;99.90
42489;DHT22;28118;52.388;9.452;2022-12-20T01:23:37;6.10;99.90
42489;DHT22;28118;52.388;9.452;2022-12-20T01:26:06;6.20;99.90
42489;DHT22;28118;52.388;9.452;2022-12-20T01:28:36;6.20;99.90
42489;DHT22;28118;52.388;9.452;2022-12-20T01:31:10;6.20;99.90
42489;DHT22;28118;52.388;9.452;2022-12-20T01:33:37;6.10;99.90
42489;DHT22;28118;52.388;9.452;2022-12-20T01:36:06;6.10;99.90
42489;DHT22;28118;52.388;9.452;2022-12-20T01:38:34;6.10;99.90
42489;DHT22;28118;52.388;9.452;2022-12-20T01:41:02;6.10;99.90
42489;DHT22;28118;52.388;9.452;2022-12-20T01:46:11;6.20;99.90
42489;DHT22;28118;52.388;9.452;2022-12-20T01:48:38;6.20;99.90
42489;DHT22;28118;52.388;9.452;2022-12-20T01:51:06;6.20;99.90
42489;DHT22;28118;52.388;9.452;2022-12-20T01:53:32;6.30;99.90
42489;DHT22;28118;52.388;9.452;2022-12-20T01:56:02;6.40;99.90
42489;DHT22;28118;52.388;9.452;2022-12-20T01:58:29;6.40;99.90
42489;DHT22;28118;52.388;9.452;2022-12-20T02:00:56;6.40;99.90
42489;DHT22;28118;52.388;9.452;2022-12-20T02:03:24;6.60;99.90
42489;DHT22;28118;52.388;9.452;2022-12-20T02:05:51;6.60;99.90
42489;DHT22;28118;52.388;9.452;2022-12-20T02:08:20;6.60;99.90
42489;DHT22;28118;52.388;9.452;2022-12-20T02:16:44;6.80;99.90
42489;DHT22;28118;52.388;9.452;2022-12-20T02:22:22;6.80;99.90
42489;DHT22;28118;52.388;9.452;2022-12-20T02:30:30;6.80;99.90
42489;DHT22;28118;52.388;9.452;2022-12-20T02:33:01;6.70;99.90
42489;DHT22;28118;52.388;9.452;2022-12-20T02:35:32;6.80;99.90
42489;DHT22;28118;52.388;9.452;2022-12-20T02:38:04;6.80;99.90
42489;DHT22;28118;52.388;9.452;2022-12-20T02:40:52;6.90;99.90
42489;DHT22;28118;52.388;9.452;2022-12-20T02:43:21;6.90;99.90
42489;DHT22;28118;52.388;9.452;2022-12-20T02:46:07;6.80;99.90
42489;DHT22;28118;52.388;9.452;2022-12-20T02:48:36;6.70;99.90
42489;DHT22;28118;52.388;9.452;2022-12-20T02:51:04;6.70;99.90
42489;DHT22;28118;52.388;9.452;2022-12-20T02:53:33;6.80;99.90
42489;DHT22;28118;52.388;9.452;2022-12-20T02:59:06;7.00;99.90
42489;DHT22;28118;52.388;9.452;2022-12-20T03:01:38;7.20;99.90
42489;DHT22;28118;52.388;9.452;2022-12-20T03:04:07;7.20;99.90
42489;DHT22;28118;52.388;9.452;2022-12-20T03:06:34;7.30;99.90
42489;DHT22;28118;52.388;9.452;2022-12-20T03:09:00;7.30;99.90
42489;DHT22;28118;52.388;9.452;2022-12-20T03:11:27;7.30;99.90
42489;DHT22;28118;52.388;9.452;2022-12-20T03:13:54;7.30;99.90
42489;DHT22;28118;52.388;9.452;2022-12-20T03:16:20;7.30;99.90
42489;DHT22;28118;52.388;9.452;2022-12-20T03:18:47;7.30;99.90
42489;DHT22;28118;52.388;9.452;2022-12-20T03:21:14;7.50;99.90
42489;DHT22;28118;52.388;9.452;2022-12-20T03:23:40;7.50;99.90
42489;DHT22;28118;52.388;9.452;2022-12-20T03:26:07;7.40;99.90
42489;DHT22;28118;52.388;9.452;2022-12-20T03:28:34;7.50;99.90
42489;DHT22;28118;52.388;9.452;2022-12-20T03:31:00;7.50;99.90
42489;DHT22;28118;52.388;9.452;2022-12-20T03:33:27;7.50;99.90
42489;DHT22;28118;52.388;9.452;2022-12-20T03:35:54;7.50;99.90
42489;DHT22;28118;52.388;9.452;2022-12-20T03:38:21;7.60;99.90
42489;DHT22;28118;52.388;9.452;2022-12-20T03:40:47;7.60;99.90
42489;DHT22;28118;52.388;9.452;2022-12-20T03:43:14;7.50;99.90
42489;DHT22;28118;52.388;9.452;2022-12-20T03:45:40;7.50;99.90
42489;DHT22;28118;52.388;9.452;2022-12-20T03:48:07;7.50;99.90
42489;DHT22;28118;52.388;9.452;2022-12-20T03:50:34;7.60;99.90
42489;DHT22;28118;52.388;9.452;2022-12-20T03:53:02;7.60;99.90
42489;DHT22;28118;52.388;9.452;2022-12-20T03:55:29;7.60;99.90
42489;DHT22;28118;52.388;9.452;2022-12-20T03:57:55;7.80;99.90
42489;DHT22;28118;52.388;9.452;2022-12-20T04:00:22;7.80;99.90
42489;DHT22;28118;52.388;9.452;2022-12-20T04:02:48;7.90;99.90
42489;DHT22;28118;52.388;9.452;2022-12-20T04:05:16;7.90;99.90
42489;DHT22;28118;52.388;9.452;2022-12-20T04:07:42;8.00;99.90
42489;DHT22;28118;52.388;9.452;2022-12-20T04:10:10;8.00;99.90
42489;DHT22;28118;52.388;9.452;2022-12-20T04:12:37;8.00;99.90
42489;DHT22;28118;52.388;9.452;2022-12-20T04:15:04;8.00;99.90
42489;DHT22;28118;52.388;9.452;2022-12-20T04:17:31;8.00;99.90
42489;DHT22;28118;52.388;9.452;2022-12-20T04:19:58;7.90;99.90
42489;DHT22;28118;52.388;9.452;2022-12-20T04:22:48;8.00;99.90
42489;DHT22;28118;52.388;9.452;2022-12-20T04:25:17;7.90;99.90
42489;DHT22;28118;52.388;9.452;2022-12-20T04:27:44;7.90;99.90
42489;DHT22;28118;52.388;9.452;2022-12-20T04:30:12;7.80;99.90
42489;DHT22;28118;52.388;9.452;2022-12-20T04:32:38;7.80;99.90
42489;DHT22;28118;52.388;9.452;2022-12-20T04:35:05;7.80;99.90
42489;DHT22;28118;52.388;9.452;2022-12-20T04:37:32;7.80;99.90
42489;DHT22;28118;52.388;9.452;2022-12-20T04:39:59;7.70;99.90
42489;DHT22;28118;52.388;9.452;2022-12-20T04:42:26;7.70;99.90
42489;DHT22;28118;52.388;9.452;2022-12-20T04:44:52;7.70;99.90
42489;DHT22;28118;52.388;9.452;2022-12-20T04:47:19;7.70;99.90
42489;DHT22;28118;52.388;9.452;2022-12-20T04:49:46;7.60;99.90
42489;DHT22;28118;52.388;9.452;2022-12-20T04:52:12;7.60;99.90
42489;DHT22;28118;52.388;9.452;2022-12-20T04:54:57;7.60;99.90
42489;DHT22;28118;52.388;9.452;2022-12-20T04:57:24;7.50;99.90
42489;DHT22;28118;52.388;9.452;2022-12-20T04:59:51;7.50;99.90
42489;DHT22;28118;52.388;9.452;2022-12-20T05:02:18;7.40;99.90
42489;DHT22;28118;52.388;9.452;2022-12-20T05:04:45;7.40;99.90
42489;DHT22;28118;52.388;9.452;2022-12-20T05:07:11;7.40;99.90
42489;DHT22;28118;52.388;9.452;2022-12-20T05:09:38;7.40;99.90
42489;DHT22;28118;52.388;9.452;2022-12-20T05:12:05;7.30;99.90
42489;DHT22;28118;52.388;9.452;2022-12-20T05:14:32;7.30;99.90
42489;DHT22;28118;52.388;9.452;2022-12-20T05:16:58;7.30;99.90
42489;DHT22;28118;52.388;9.452;2022-12-20T05:19:25;7.30;99.90
42489;DHT22;28118;52.388;9.452;2022-12-20T05:21:52;7.30;99.90
42489;DHT22;28118;52.388;9.452;2022-12-20T05:24:37;7.30;99.90
42489;DHT22;28118;52.388;9.452;2022-12-20T05:27:23;7.30;99.90
42489;DHT22;28118;52.388;9.452;2022-12-20T05:29:49;7.30;99.90
42489;DHT22;28118;52.388;9.452;2022-12-20T05:32:16;7.30;99.90
42489;DHT22;28118;52.388;9.452;2022-12-20T05:34:43;7.30;99.90
42489;DHT22;28118;52.388;9.452;2022-12-20T05:37:09;7.40;99.90
42489;DHT22;28118;52.388;9.452;2022-12-20T05:39:36;7.40;99.90
42489;DHT22;28118;52.388;9.452;2022-12-20T05:42:03;7.40;99.90
42489;DHT22;28118;52.388;9.452;2022-12-20T05:44:29;7.50;99.90
42489;DHT22;28118;52.388;9.452;2022-12-20T05:46:56;7.50;99.90
42489;DHT22;28118;52.388;9.452;2022-12-20T05:49:23;7.50;99.90
42489;DHT22;28118;52.388;9.452;2022-12-20T05:51:50;7.50;99.90
42489;DHT22;28118;52.388;9.452;2022-12-20T05:54:16;7.60;99.90
42489;DHT22;28118;52.388;9.452;2022-12-20T05:56:43;7.60;99.90
42489;DHT22;28118;52.388;9.452;2022-12-20T05:59:10;7.60;99.90
42489;DHT22;28118;52.388;9.452;2022-12-20T06:01:36;7.70;99.90
42489;DHT22;28118;52.388;9.452;2022-12-20T06:04:03;7.70;99.90
42489;DHT22;28118;52.388;9.452;2022-12-20T06:06:30;7.80;99.90
42489;DHT22;28118;52.388;9.452;2022-12-20T06:08:57;7.70;99.90
42489;DHT22;28118;52.388;9.452;2022-12-20T06:11:23;7.70;99.90
42489;DHT22;28118;52.388;9.452;2022-12-20T06:13:55;7.80;99.90
42489;DHT22;28118;52.388;9.452;2022-12-20T06:16:22;7.80;99.90
42489;DHT22;28118;52.388;9.452;2022-12-20T06:18:49;7.80;99.90
42489;DHT22;28118;52.388;9.452;2022-12-20T06:21:15;7.80;99.90
42489;DHT22;28118;52.388;9.452;2022-12-20T06:23:43;7.80;99.90
42489;DHT22;28118;52.388;9.452;2022-12-20T06:26:10;7.80;99.90
42489;DHT22;28118;52.388;9.452;2022-12-20T06:28:36;7.80;99.90
42489;DHT22;28118;52.388;9.452;2022-12-20T06:31:09;7.80;99.90
42489;DHT22;28118;52.388;9.452;2022-12-20T06:33:36;7.80;99.90
42489;DHT22;28118;52.388;9.452;2022-12-20T06:36:03;7.80;99.90
42489;DHT22;28118;52.388;9.452;2022-12-20T06:38:30;7.80;99.90
42489;DHT22;28118;52.388;9.452;2022-12-20T06:40:57;7.90;99.90
42489;DHT22;28118;52.388;9.452;2022-12-20T06:43:23;7.90;99.90
42489;DHT22;28118;52.388;9.452;2022-12-20T06:45:50;7.80;99.90
42489;DHT22;28118;52.388;9.452;2022-12-20T06:48:16;7.80;99.90
42489;DHT22;28118;52.388;9.452;2022-12-20T06:50:43;7.80;99.90
42489;DHT22;28118;52.388;9.452;2022-12-20T06:53:14;7.80;99.90
42489;DHT22;28118;52.388;9.452;2022-12-20T06:55:42;7.80;99.90
42489;DHT22;28118;52.388;9.452;2022-12-20T06:58:08;7.80;99.90
42489;DHT22;28118;52.388;9.452;2022-12-20T07:00:35;7.80;99.90
42489;DHT22;28118;52.388;9.452;2022-12-20T07:03:02;7.80;99.90
42489;DHT22;28118;52.388;9.452;2022-12-20T07:05:28;7.80;99.90
42489;DHT22;28118;52.388;9.452;2022-12-20T07:07:55;7.80;99.90
42489;DHT22;28118;52.388;9.452;2022-12-20T07:10:22;7.80;99.90
42489;DHT22;28118;52.388;9.452;2022-12-20T07:12:48;7.80;99.90
42489;DHT22;28118;52.388;9.452;2022-12-20T07:15:15;7.80;99.90
42489;DHT22;28118;52.388;9.452;2022-12-20T07:17:42;7.70;99.90
42489;DHT22;28118;52.388;9.452;2022-12-20T07:20:09;7.70;99.90
42489;DHT22;28118;52.388;9.452;2022-12-20T07:22:40;7.70;99.90
42489;DHT22;28118;52.388;9.452;2022-12-20T07:25:07;7.60;99.90
42489;DHT22;28118;52.388;9.452;2022-12-20T07:27:33;7.70;99.90
42489;DHT22;28118;52.388;9.452;2022-12-20T07:30:00;7.70;99.90
42489;DHT22;28118;52.388;9.452;2022-12-20T07:32:27;7.60;99.90
42489;DHT22;28118;52.388;9.452;2022-12-20T07:34:53;7.70;99.90
42489;DHT22;28118;52.388;9.452;2022-12-20T07:37:20;7.70;99.90
42489;DHT22;28118;52.388;9.452;2022-12-20T07:39:46;7.70;99.90
42489;DHT22;28118;52.388;9.452;2022-12-20T07:42:13;7.80;99.90
42489;DHT22;28118;52.388;9.452;2022-12-20T07:44:41;7.80;99.90
42489;DHT22;28118;52.388;9.452;2022-12-20T07:47:09;7.80;99.90
42489;DHT22;28118;52.388;9.452;2022-12-20T07:49:36;7.80;99.90
42489;DHT22;28118;52.388;9.452;2022-12-20T07:52:03;7.80;99.90
42489;DHT22;28118;52.388;9.452;2022-12-20T07:54:34;7.90;99.90
42489;DHT22;28118;52.388;9.452;2022-12-20T07:57:10;7.90;99.90
42489;DHT22;28118;52.388;9.452;2022-12-20T07:59:43;7.90;99.90
42489;DHT22;28118;52.388;9.452;2022-12-20T08:02:14;7.90;99.90
42489;DHT22;28118;52.388;9.452;2022-12-20T08:04:43;7.90;99.90
42489;DHT22;28118;52.388;9.452;2022-12-20T08:07:10;8.00;99.90
42489;DHT22;28118;52.388;9.452;2022-12-20T08:09:40;8.00;99.90
42489;DHT22;28118;52.388;9.452;2022-12-20T08:12:07;8.10;99.90
42489;DHT22;28118;52.388;9.452;2022-12-20T08:14:36;8.10;99.90
42489;DHT22;28118;52.388;9.452;2022-12-20T08:17:03;8.10;99.90
42489;DHT22;28118;52.388;9.452;2022-12-20T08:19:29;8.10;99.90
42489;DHT22;28118;52.388;9.452;2022-12-20T08:21:58;8.20;99.90
42489;DHT22;28118;52.388;9.452;2022-12-20T08:24:25;8.20;99.90
42489;DHT22;28118;52.388;9.452;2022-12-20T08:26:51;8.20;99.90
42489;DHT22;28118;52.388;9.452;2022-12-20T08:29:18;8.30;99.90
42489;DHT22;28118;52.388;9.452;2022-12-20T08:31:44;8.40;99.90
42489;DHT22;28118;52.388;9.452;2022-12-20T08:34:16;8.40;99.90
42489;DHT22;28118;52.388;9.452;2022-12-20T08:36:43;8.40;99.90
42489;DHT22;28118;52.388;9.452;2022-12-20T08:39:10;8.50;99.90
42489;DHT22;28118;52.388;9.452;2022-12-20T08:41:37;8.50;99.90
42489;DHT22;28118;52.388;9.452;2022-12-20T08:44:04;8.50;99.90
42489;DHT22;28118;52.388;9.452;2022-12-20T08:46:31;8.60;99.90
42489;DHT22;28118;52.388;9.452;2022-12-20T08:48:58;8.60;99.90
42489;DHT22;28118;52.388;9.452;2022-12-20T08:51:25;8.60;99.90
42489;DHT22;28118;52.388;9.452;2022-12-20T08:53:51;8.70;99.90
42489;DHT22;28118;52.388;9.452;2022-12-20T08:56:18;8.70;99.90
42489;DHT22;28118;52.388;9.452;2022-12-20T08:58:45;8.70;99.90
42489;DHT22;28118;52.388;9.452;2022-12-20T09:01:14;8.70;99.90
42489;DHT22;28118;52.388;9.452;2022-12-20T09:03:42;8.70;99.90
42489;DHT22;28118;52.388;9.452;2022-12-20T09:06:12;8.80;99.90
42489;DHT22;28118;52.388;9.452;2022-12-20T09:08:39;8.80;99.90
42489;DHT22;28118;52.388;9.452;2022-12-20T09:11:11;8.90;99.90
42489;DHT22;28118;52.388;9.452;2022-12-20T09:13:39;9.00;99.90
42489;DHT22;28118;52.388;9.452;2022-12-20T09:16:11;9.00;99.90
42489;DHT22;28118;52.388;9.452;2022-12-20T09:18:39;9.10;99.90
42489;DHT22;28118;52.388;9.452;2022-12-20T09:21:06;9.10;99.90
42489;DHT22;28118;52.388;9.452;2022-12-20T09:23:34;9.20;99.90
42489;DHT22;28118;52.388;9.452;2022-12-20T09:26:06;9.20;99.90
42489;DHT22;28118;52.388;9.452;2022-12-20T09:28:33;9.30;99.90
42489;DHT22;28118;52.388;9.452;2022-12-20T09:31:02;9.30;99.90
42489;DHT22;28118;52.388;9.452;2022-12-20T09:33:30;9.30;99.90
42489;DHT22;28118;52.388;9.452;2022-12-20T09:35:58;9.40;99.90
42489;DHT22;28118;52.388;9.452;2022-12-20T09:38:26;9.30;99.90
42489;DHT22;28118;52.388;9.452;2022-12-20T09:40:54;9.40;99.90
42489;DHT22;28118;52.388;9.452;2022-12-20T09:43:22;9.50;99.90
42489;DHT22;28118;52.388;9.452;2022-12-20T09:45:54;9.50;99.90
42489;DHT22;28118;52.388;9.452;2022-12-20T09:48:24;9.60;99.90
42489;DHT22;28118;52.388;9.452;2022-12-20T09:57:02;9.60;99.90
42489;DHT22;28118;52.388;9.452;2022-12-20T09:59:34;9.70;99.90
42489;DHT22;28118;52.388;9.452;2022-12-20T10:02:10;9.80;99.90
42489;DHT22;28118;52.388;9.452;2022-12-20T10:04:57;9.80;99.90
42489;DHT22;28118;52.388;9.452;2022-12-20T10:07:47;9.90;99.90
42489;DHT22;28118;52.388;9.452;2022-12-20T10:24:24;10.40;99.90
42489;DHT22;28118;52.388;9.452;2022-12-20T10:26:51;10.40;99.90
42489;DHT22;28118;52.388;9.452;2022-12-20T10:29:19;10.40;99.90
42489;DHT22;28118;52.388;9.452;2022-12-20T10:31:55;10.40;99.90
42489;DHT22;28118;52.388;9.452;2022-12-20T10:34:24;10.50;99.90
42489;DHT22;28118;52.388;9.452;2022-12-20T10:37:11;10.50;99.90
42489;DHT22;28118;52.388;9.452;2022-12-20T10:39:42;10.60;99.90
42489;DHT22;28118;52.388;9.452;2022-12-20T10:44:57;10.50;99.90
42489;DHT22;28118;52.388;9.452;2022-12-20T10:47:44;10.50;99.90
42489;DHT22;28118;52.388;9.452;2022-12-20T10:50:20;10.50;99.90
42489;DHT22;28118;52.388;9.452;2022-12-20T10:55:40;10.50;99.90
42489;DHT22;28118;52.388;9.452;2022-12-20T11:01:10;10.60;99.90
42489;DHT22;28118;52.388;9.452;2022-12-20T11:06:22;10.70;99.90
42489;DHT22;28118;52.388;9.452;2022-12-20T11:08:49;10.70;99.90
42489;DHT22;28118;52.388;9.452;2022-12-20T11:11:24;10.80;99.90
42489;DHT22;28118;52.388;9.452;2022-12-20T11:13:51;10.80;99.90
42489;DHT22;28118;52.388;9.452;2022-12-20T11:24:43;11.10;99.90
42489;DHT22;28118;52.388;9.452;2022-12-20T11:32:25;11.00;99.90
42489;DHT22;28118;52.388;9.452;2022-12-20T11:37:42;10.90;99.90
42489;DHT22;28118;52.388;9.452;2022-12-20T11:40:30;10.90;99.90
42489;DHT22;28118;52.388;9.452;2022-12-20T11:48:49;11.00;99.90
42489;DHT22;28118;52.388;9.452;2022-12-20T11:51:21;10.90;99.90
42489;DHT22;28118;52.388;9.452;2022-12-20T11:56:44;10.90;99.90
42489;DHT22;28118;52.388;9.452;2022-12-20T12:02:13;10.90;99.90
42489;DHT22;28118;52.388;9.452;2022-12-20T12:07:19;10.80;99.90
42489;DHT22;28118;52.388;9.452;2022-12-20T12:10:05;10.80;99.90
42489;DHT22;28118;52.388;9.452;2022-12-20T12:12:46;10.80;99.90
42489;DHT22;28118;52.388;9.452;2022-12-20T12:23:27;10.70;99.90
42489;DHT22;28118;52.388;9.452;2022-12-20T12:25:57;10.70;99.90
42489;DHT22;28118;52.388;9.452;2022-12-20T12:28:25;10.70;99.90
42489;DHT22;28118;52.388;9.452;2022-12-20T12:30:59;10.70;99.90
42489;DHT22;28118;52.388;9.452;2022-12-20T12:33:52;10.70;99.90
42489;DHT22;28118;52.388;9.452;2022-12-20T12:45:46;10.60;99.90
42489;DHT22;28118;52.388;9.452;2022-12-20T12:50:58;10.50;99.90
42489;DHT22;28118;52.388;9.452;2022-12-20T12:53:35;10.50;99.90
42489;DHT22;28118;52.388;9.452;2022-12-20T13:11:53;10.30;99.90
42489;DHT22;28118;52.388;9.452;2022-12-20T13:19:53;10.20;99.90
42489;DHT22;28118;52.388;9.452;2022-12-20T13:22:25;10.20;99.90
42489;DHT22;28118;52.388;9.452;2022-12-20T13:24:57;10.20;99.90
42489;DHT22;28118;52.388;9.452;2022-12-20T13:37:56;10.10;99.90
42489;DHT22;28118;52.388;9.452;2022-12-20T13:40:37;10.00;99.90
42489;DHT22;28118;52.388;9.452;2022-12-20T13:46:11;10.00;99.90
42489;DHT22;28118;52.388;9.452;2022-12-20T13:51:17;10.00;99.90
42489;DHT22;28118;52.388;9.452;2022-12-20T13:53:57;10.00;99.90
42489;DHT22;28118;52.388;9.452;2022-12-20T13:59:06;10.00;99.90
42489;DHT22;28118;52.388;9.452;2022-12-20T14:04:09;9.80;99.90
42489;DHT22;28118;52.388;9.452;2022-12-20T14:06:36;9.80;99.90
42489;DHT22;28118;52.388;9.452;2022-12-20T14:09:03;9.80;99.90
42489;DHT22;28118;52.388;9.452;2022-12-20T14:11:31;9.70;99.90
42489;DHT22;28118;52.388;9.452;2022-12-20T14:14:00;9.70;99.90
42489;DHT22;28118;52.388;9.452;2022-12-20T14:16:29;9.70;99.90
42489;DHT22;28118;52.388;9.452;2022-12-20T14:21:24;9.60;99.90
42489;DHT22;28118;52.388;9.452;2022-12-20T14:23:53;9.60;99.90
42489;DHT22;28118;52.388;9.452;2022-12-20T14:26:40;9.60;99.90
42489;DHT22;28118;52.388;9.452;2022-12-20T14:29:11;9.60;99.90
42489;DHT22;28118;52.388;9.452;2022-12-20T14:31:48;9.60;99.90
42489;DHT22;28118;52.388;9.452;2022-12-20T14:34:19;9.70;99.90
42489;DHT22;28118;52.388;9.452;2022-12-20T14:37:29;9.70;99.90
42489;DHT22;28118;52.388;9.452;2022-12-20T14:40:03;9.70;99.90
42489;DHT22;28118;52.388;9.452;2022-12-20T14:42:40;9.80;99.90
42489;DHT22;28118;52.388;9.452;2022-12-20T14:47:37;9.80;99.90
42489;DHT22;28118;52.388;9.452;2022-12-20T14:50:12;9.70;99.90
42489;DHT22;28118;52.388;9.452;2022-12-20T14:52:42;9.60;99.90
42489;DHT22;28118;52.388;9.452;2022-12-20T14:55:25;9.60;99.90
42489;DHT22;28118;52.388;9.452;2022-12-20T14:57:55;9.50;99.90
42489;DHT22;28118;52.388;9.452;2022-12-20T15:13:39;9.40;99.90
42489;DHT22;28118;52.388;9.452;2022-12-20T15:16:16;9.40;99.90
42489;DHT22;28118;52.388;9.452;2022-12-20T15:18:44;9.30;99.90
42489;DHT22;28118;52.388;9.452;2022-12-20T15:21:13;9.40;99.90
42489;DHT22;28118;52.388;9.452;2022-12-20T15:23:45;9.40;99.90
42489;DHT22;28118;52.388;9.452;2022-12-20T15:26:17;9.40;99.90
42489;DHT22;28118;52.388;9.452;2022-12-20T15:28:45;9.40;99.90
42489;DHT22;28118;52.388;9.452;2022-12-20T15:31:14;9.40;99.90
42489;DHT22;28118;52.388;9.452;2022-12-20T15:33:42;9.50;99.90
42489;DHT22;28118;52.388;9.452;2022-12-20T15:36:19;9.50;99.90
42489;DHT22;28118;52.388;9.452;2022-12-20T15:38:46;9.60;99.90
42489;DHT22;28118;52.388;9.452;2022-12-20T15:41:33;9.50;99.90
42489;DHT22;28118;52.388;9.452;2022-12-20T15:44:20;9.50;99.90
42489;DHT22;28118;52.388;9.452;2022-12-20T15:46:47;9.50;99.90
42489;DHT22;28118;52.388;9.452;2022-12-20T15:49:19;9.50;99.90
42489;DHT22;28118;52.388;9.452;2022-12-20T15:51:47;9.50;99.90
42489;DHT22;28118;52.388;9.452;2022-12-20T15:54:32;9.50;99.90
42489;DHT22;28118;52.388;9.452;2022-12-20T15:57:00;9.40;99.90
42489;DHT22;28118;52.388;9.452;2022-12-20T15:59:33;9.40;99.90
42489;DHT22;28118;52.388;9.452;2022-12-20T16:04:48;9.40;99.90
42489;DHT22;28118;52.388;9.452;2022-12-20T16:07:15;9.40;99.90
42489;DHT22;28118;52.388;9.452;2022-12-20T16:09:42;9.40;99.90
42489;DHT22;28118;52.388;9.452;2022-12-20T16:12:22;9.40;99.90
42489;DHT22;28118;52.388;9.452;2022-12-20T16:14:50;9.40;99.90
42489;DHT22;28118;52.388;9.452;2022-12-20T16:17:17;9.50;99.90
42489;DHT22;28118;52.388;9.452;2022-12-20T16:19:43;9.50;99.90
42489;DHT22;28118;52.388;9.452;2022-12-20T16:22:21;9.60;99.90
42489;DHT22;28118;52.388;9.452;2022-12-20T16:24:49;9.70;99.90
42489;DHT22;28118;52.388;9.452;2022-12-20T16:27:16;9.70;99.90
42489;DHT22;28118;52.388;9.452;2022-12-20T16:29:42;9.70;99.90
42489;DHT22;28118;52.388;9.452;2022-12-20T16:32:19;9.70;99.90
42489;DHT22;28118;52.388;9.452;2022-12-20T16:34:49;9.80;99.90
42489;DHT22;28118;52.388;9.452;2022-12-20T16:37:16;9.80;99.90
42489;DHT22;28118;52.388;9.452;2022-12-20T16:39:43;9.70;99.90
42489;DHT22;28118;52.388;9.452;2022-12-20T16:42:15;9.70;99.90
42489;DHT22;28118;52.388;9.452;2022-12-20T16:44:42;9.70;99.90
42489;DHT22;28118;52.388;9.452;2022-12-20T16:47:11;9.70;99.90
42489;DHT22;28118;52.388;9.452;2022-12-20T16:49:39;9.80;99.90
42489;DHT22;28118;52.388;9.452;2022-12-20T16:52:17;9.80;99.90
42489;DHT22;28118;52.388;9.452;2022-12-20T16:54:44;9.80;99.90
42489;DHT22;28118;52.388;9.452;2022-12-20T16:57:10;9.80;99.90
42489;DHT22;28118;52.388;9.452;2022-12-20T16:59:37;9.70;99.90
42489;DHT22;28118;52.388;9.452;2022-12-20T17:02:21;9.70;99.90
42489;DHT22;28118;52.388;9.452;2022-12-20T17:04:48;9.70;99.90
42489;DHT22;28118;52.388;9.452;2022-12-20T17:07:15;9.60;99.90
42489;DHT22;28118;52.388;9.452;2022-12-20T17:09:41;9.60;99.90
42489;DHT22;28118;52.388;9.452;2022-12-20T17:12:26;9.60;99.90
42489;DHT22;28118;52.388;9.452;2022-12-20T17:14:52;9.70;99.90
42489;DHT22;28118;52.388;9.452;2022-12-20T17:17:19;9.70;99.90
42489;DHT22;28118;52.388;9.452;2022-12-20T17:19:46;9.60;99.90
42489;DHT22;28118;52.388;9.452;2022-12-20T17:22:14;9.60;99.90
42489;DHT22;28118;52.388;9.452;2022-12-20T17:24:48;9.60;99.90
42489;DHT22;28118;52.388;9.452;2022-12-20T17:27:14;9.50;99.90
42489;DHT22;28118;52.388;9.452;2022-12-20T17:29:41;9.50;99.90
42489;DHT22;28118;52.388;9.452;2022-12-20T17:32:18;9.50;99.90
42489;DHT22;28118;52.388;9.452;2022-12-20T17:34:46;9.50;99.90
42489;DHT22;28118;52.388;9.452;2022-12-20T17:37:13;9.40;99.90
42489;DHT22;28118;52.388;9.452;2022-12-20T17:39:39;9.40;99.90
42489;DHT22;28118;52.388;9.452;2022-12-20T17:42:10;9.40;99.90
42489;DHT22;28118;52.388;9.452;2022-12-20T17:44:37;9.40;99.90
42489;DHT22;28118;52.388;9.452;2022-12-20T17:47:04;9.30;99.90
42489;DHT22;28118;52.388;9.452;2022-12-20T17:49:31;9.30;99.90
42489;DHT22;28118;52.388;9.452;2022-12-20T17:51:59;9.40;99.90
42489;DHT22;28118;52.388;9.452;2022-12-20T17:54:26;9.60;99.90
42489;DHT22;28118;52.388;9.452;2022-12-20T17:57:02;9.60;99.90
42489;DHT22;28118;52.388;9.452;2022-12-20T17:59:29;9.60;99.90
42489;DHT22;28118;52.388;9.452;2022-12-20T18:01:55;9.70;99.90
42489;DHT22;28118;52.388;9.452;2022-12-20T18:04:22;9.70;99.90
42489;DHT22;28118;52.388;9.452;2022-12-20T18:06:49;9.80;99.90
42489;DHT22;28118;52.388;9.452;2022-12-20T18:09:19;9.70;99.90
42489;DHT22;28118;52.388;9.452;2022-12-20T18:11:47;9.70;99.90
42489;DHT22;28118;52.388;9.452;2022-12-20T18:14:14;9.70;99.90
42489;DHT22;28118;52.388;9.452;2022-12-20T18:16:41;9.70;99.90
42489;DHT22;28118;52.388;9.452;2022-12-20T18:19:15;9.70;99.90
42489;DHT22;28118;52.388;9.452;2022-12-20T18:21:42;9.80;99.90
42489;DHT22;28118;52.388;9.452;2022-12-20T18:24:13;9.70;99.90
42489;DHT22;28118;52.388;9.452;2022-12-20T18:26:41;9.70;99.90
42489;DHT22;28118;52.388;9.452;2022-12-20T18:29:09;9.70;99.90
42489;DHT22;28118;52.388;9.452;2022-12-20T18:31:36;9.70;99.90
42489;DHT22;28118;52.388;9.452;2022-12-20T18:34:03;9.70;99.90
42489;DHT22;28118;52.388;9.452;2022-12-20T18:36:32;9.70;99.90
42489;DHT22;28118;52.388;9.452;2022-12-20T18:39:02;9.70;99.90
42489;DHT22;28118;52.388;9.452;2022-12-20T18:41:30;9.60;99.90
42489;DHT22;28118;52.388;9.452;2022-12-20T18:43:59;9.60;99.90
42489;DHT22;28118;52.388;9.452;2022-12-20T18:46:27;9.60;99.90